createdAt,value
2018-07-08T00:01:31.542Z,82.19
2018-07-08T00:03:59.907Z,82.45
2018-07-08T00:06:28.499Z,81.61
2018-07-08T00:08:56.904Z,80.95
2018-07-08T00:11:25.344Z,81.35
2018-07-08T00:13:53.929Z,82.29
2018-07-08T00:16:22.110Z,81.50
2018-07-08T00:18:50.686Z,81.90
2018-07-08T00:21:19.161Z,82.47
2018-07-08T00:23:47.094Z,82.25
2018-07-08T00:26:15.619Z,83.18
2018-07-08T00:28:44.194Z,84.00
2018-07-08T00:31:12.179Z,83.53
2018-07-08T00:33:40.535Z,83.72
2018-07-08T00:36:09.035Z,83.55
2018-07-08T00:38:37.370Z,85.54
2018-07-08T00:41:05.688Z,86.79
2018-07-08T00:43:34.059Z,87.73
2018-07-08T00:46:02.549Z,87.47
2018-07-08T00:48:31.010Z,88.01
2018-07-08T00:50:59.299Z,88.08
2018-07-08T00:53:27.662Z,88.01
2018-07-08T00:55:56.050Z,88.18
2018-07-08T00:58:24.434Z,88.61
2018-07-08T01:00:52.698Z,87.93
2018-07-08T01:03:21.175Z,88.38
2018-07-08T01:05:49.450Z,87.74
2018-07-08T01:08:17.930Z,88.72
2018-07-08T01:10:46.326Z,88.15
2018-07-08T01:13:14.800Z,88.74
2018-07-08T01:15:43.371Z,91.35
2018-07-08T01:18:11.526Z,91.58
2018-07-08T01:20:40.136Z,91.14
2018-07-08T01:23:08.282Z,90.11
2018-07-08T01:26:19.082Z,89.41
2018-07-08T01:28:47.344Z,90.68
2018-07-08T01:31:15.792Z,89.96
2018-07-08T01:33:44.109Z,88.72
2018-07-08T01:36:12.414Z,88.05
2018-07-08T01:38:40.766Z,86.22
2018-07-08T01:41:09.246Z,86.68
2018-07-08T01:43:37.621Z,88.15
2018-07-08T01:46:06.013Z,88.52
2018-07-08T01:48:34.479Z,89.39
2018-07-08T01:51:02.646Z,89.58
2018-07-08T01:53:31.031Z,89.68
2018-07-08T01:55:59.298Z,91.37
2018-07-08T01:58:27.882Z,91.34
2018-07-08T02:00:56.166Z,91.65
2018-07-08T02:03:24.545Z,91.87
2018-07-08T02:05:52.816Z,92.47
2018-07-08T02:08:21.185Z,91.61
2018-07-08T02:10:49.614Z,91.49
2018-07-08T02:13:18.053Z,90.39
2018-07-08T02:15:46.434Z,90.09
2018-07-08T02:18:14.698Z,91.03
2018-07-08T02:20:43.091Z,90.87
2018-07-08T02:23:11.567Z,89.48
2018-07-08T02:25:39.994Z,88.62
2018-07-08T02:28:08.314Z,87.04
2018-07-08T02:30:36.757Z,85.70
2018-07-08T02:33:05.272Z,84.67
2018-07-08T02:35:34.487Z,82.53
2018-07-08T02:38:03.049Z,81.76
2018-07-08T02:40:31.295Z,79.97
2018-07-08T02:42:59.706Z,77.94
2018-07-08T02:45:27.990Z,79.43
2018-07-08T02:47:56.674Z,80.50
2018-07-08T02:50:25.163Z,80.71
2018-07-08T02:52:53.726Z,80.31
2018-07-08T02:55:22.106Z,80.87
2018-07-08T02:57:50.366Z,79.79
2018-07-08T03:00:18.772Z,79.36
2018-07-08T03:02:47.133Z,79.62
2018-07-08T03:05:15.422Z,80.92
2018-07-08T03:07:43.796Z,82.59
2018-07-08T03:10:12.383Z,82.41
2018-07-08T03:12:40.661Z,81.92
2018-07-08T03:15:09.129Z,82.31
2018-07-08T03:17:37.402Z,82.52
2018-07-08T03:20:05.891Z,82.41
2018-07-08T03:22:34.262Z,82.61
2018-07-08T03:25:02.742Z,83.60
2018-07-08T03:27:31.125Z,83.87
2018-07-08T03:29:59.498Z,82.79
2018-07-08T03:32:27.886Z,81.89
2018-07-08T03:34:56.159Z,81.45
2018-07-08T03:37:24.434Z,81.07
2018-07-08T03:39:52.707Z,80.96
2018-07-08T03:42:20.990Z,81.25
2018-07-08T03:44:49.254Z,82.37
2018-07-08T03:47:17.741Z,82.00
2018-07-08T03:49:46.110Z,81.64
2018-07-08T03:52:14.703Z,81.97
2018-07-08T03:54:43.073Z,81.53
2018-07-08T03:57:11.451Z,81.58
2018-07-08T03:59:39.629Z,81.34
2018-07-08T04:02:07.906Z,81.16
2018-07-08T04:04:36.378Z,81.07
2018-07-08T04:07:04.388Z,81.13
2018-07-08T04:09:32.722Z,80.33
2018-07-08T04:12:00.999Z,80.74
2018-07-08T04:14:29.164Z,80.73
2018-07-08T04:16:57.362Z,80.85
2018-07-08T04:19:25.612Z,81.94
2018-07-08T04:21:53.586Z,81.83
2018-07-08T04:24:21.965Z,81.14
2018-07-08T04:26:50.241Z,81.71
2018-07-08T04:29:18.617Z,82.08
2018-07-08T04:31:46.901Z,81.09
2018-07-08T04:34:15.179Z,81.79
2018-07-08T04:36:43.455Z,81.54
2018-07-08T04:39:11.858Z,81.70
2018-07-08T04:41:40.211Z,81.98
2018-07-08T04:44:08.373Z,82.56
2018-07-08T04:46:36.760Z,84.24
2018-07-08T04:49:04.937Z,84.62
2018-07-08T04:51:33.413Z,85.33
2018-07-08T04:54:01.681Z,85.76
2018-07-08T04:56:30.062Z,86.27
2018-07-08T04:58:58.333Z,86.46
2018-07-08T05:01:26.657Z,85.88
2018-07-08T05:03:55.104Z,85.58
2018-07-08T05:06:23.280Z,84.30
2018-07-08T05:08:51.654Z,82.98
2018-07-08T05:11:20.022Z,81.16
2018-07-08T05:13:48.402Z,81.51
2018-07-08T05:16:16.412Z,80.80
2018-07-08T05:18:44.845Z,81.25
2018-07-08T05:21:13.126Z,81.11
2018-07-08T05:23:41.498Z,81.40
2018-07-08T05:26:09.874Z,81.00
2018-07-08T05:28:38.366Z,80.90
2018-07-08T05:31:06.677Z,80.25
2018-07-08T05:33:34.571Z,80.61
2018-07-08T05:36:02.989Z,80.54
2018-07-08T05:38:31.153Z,80.46
2018-07-08T05:40:59.086Z,80.77
2018-07-08T05:43:27.298Z,80.02
2018-07-08T05:45:55.570Z,79.68
2018-07-08T05:48:24.046Z,79.34
2018-07-08T05:50:52.629Z,77.93
2018-07-08T05:53:20.913Z,76.88
2018-07-08T05:55:49.281Z,78.02
2018-07-08T05:58:17.674Z,79.42
2018-07-08T06:00:46.055Z,78.87
2018-07-08T06:03:14.321Z,78.27
2018-07-08T06:05:42.793Z,78.55
2018-07-08T06:08:11.069Z,78.08
2018-07-08T06:10:38.995Z,77.19
2018-07-08T06:13:07.412Z,76.89
2018-07-08T06:15:35.893Z,78.22
2018-07-08T06:18:04.505Z,77.45
2018-07-08T06:20:32.864Z,76.23
2018-07-08T06:23:01.364Z,75.33
2018-07-08T06:25:29.925Z,76.57
2018-07-08T06:27:58.343Z,76.28
2018-07-08T06:30:26.786Z,76.67
2018-07-08T06:32:55.163Z,76.66
2018-07-08T06:35:23.445Z,75.81
2018-07-08T06:37:51.814Z,76.08
2018-07-08T06:40:20.197Z,75.94
2018-07-08T06:42:48.570Z,76.33
2018-07-08T06:45:16.747Z,76.96
2018-07-08T06:47:45.322Z,76.42
2018-07-08T06:50:13.697Z,76.83
2018-07-08T06:52:41.630Z,73.86
2018-07-08T06:55:09.571Z,72.99
2018-07-08T06:57:37.497Z,72.51
2018-07-08T07:00:05.413Z,71.76
2018-07-08T07:02:33.959Z,70.90
2018-07-08T07:05:02.331Z,70.34
2018-07-08T07:07:30.701Z,71.12
2018-07-08T07:09:59.018Z,70.31
2018-07-08T07:12:27.458Z,70.87
2018-07-08T07:14:55.633Z,70.91
2018-07-08T07:17:24.048Z,69.65
2018-07-08T07:19:52.085Z,68.96
2018-07-08T07:22:20.507Z,68.89
2018-07-08T07:24:49.047Z,69.67
2018-07-08T07:27:17.526Z,69.58
2018-07-08T07:29:45.906Z,67.99
2018-07-08T07:32:14.170Z,68.46
2018-07-08T07:34:42.107Z,68.51
2018-07-08T07:37:10.545Z,67.83
2018-07-08T07:39:38.720Z,67.73
2018-07-08T07:42:06.872Z,67.78
2018-07-08T07:44:35.250Z,67.17
2018-07-08T07:47:03.621Z,67.33
2018-07-08T07:49:31.554Z,67.24
2018-07-08T07:51:59.866Z,67.15
2018-07-08T07:54:28.136Z,66.26
2018-07-08T07:56:56.118Z,67.33
2018-07-08T07:59:24.391Z,67.78
2018-07-08T08:01:52.770Z,68.86
2018-07-08T08:04:21.151Z,69.06
2018-07-08T08:06:49.521Z,67.42
2018-07-08T08:09:17.803Z,66.91
2018-07-08T08:11:46.171Z,67.59
2018-07-08T08:14:14.255Z,67.12
2018-07-08T08:16:42.522Z,67.71
2018-07-08T08:19:10.903Z,67.55
2018-07-08T08:21:39.165Z,67.05
2018-07-08T08:24:07.554Z,67.32
2018-07-08T08:26:35.869Z,67.24
2018-07-08T08:29:04.338Z,67.28
2018-07-08T08:31:32.790Z,65.87
2018-07-08T08:35:06.471Z,65.52
2018-07-08T08:37:35.993Z,64.74
2018-07-08T08:40:04.689Z,63.74
2018-07-08T08:42:33.069Z,63.89
2018-07-08T08:45:01.746Z,64.41
2018-07-08T08:47:30.842Z,64.46
2018-07-08T08:49:59.424Z,62.39
2018-07-08T08:52:27.878Z,63.60
2018-07-08T08:54:56.494Z,63.62
2018-07-08T08:57:24.918Z,62.55
2018-07-08T08:59:53.706Z,62.46
2018-07-08T09:02:22.250Z,62.69
2018-07-08T09:04:50.718Z,63.18
2018-07-08T09:07:19.473Z,64.50
2018-07-08T09:09:47.657Z,65.35
2018-07-08T09:12:16.167Z,65.04
2018-07-08T09:14:44.460Z,65.21
2018-07-08T09:17:12.829Z,65.05
2018-07-08T09:19:41.276Z,65.49
2018-07-08T09:22:10.023Z,65.31
2018-07-08T09:24:38.455Z,63.59
2018-07-08T09:27:06.888Z,61.87
2018-07-08T09:29:35.421Z,60.02
2018-07-08T09:32:03.697Z,60.77
2018-07-08T09:34:32.069Z,62.25
2018-07-08T09:37:00.346Z,58.74
2018-07-08T09:39:28.717Z,59.88
2018-07-08T09:41:57.101Z,62.11
2018-07-08T09:44:25.574Z,62.78
2018-07-08T09:46:53.849Z,62.90
2018-07-08T09:49:22.121Z,62.52
2018-07-08T09:51:50.514Z,62.28
2018-07-08T09:54:18.892Z,61.40
2018-07-08T09:56:48.088Z,62.75
2018-07-08T09:59:16.365Z,62.89
2018-07-08T10:01:45.716Z,61.90
2018-07-08T10:04:16.149Z,62.30
2018-07-08T10:06:45.377Z,62.65
2018-07-08T10:09:14.909Z,62.11
2018-07-08T10:11:43.369Z,60.51
2018-07-08T10:14:13.626Z,59.60
2018-07-08T10:16:42.127Z,61.44
2018-07-08T10:19:11.318Z,59.72
2018-07-08T10:21:39.737Z,59.01
2018-07-08T10:24:08.165Z,58.19
2018-07-08T10:26:36.604Z,59.87
2018-07-08T10:29:05.140Z,61.36
2018-07-08T10:31:48.015Z,61.46
2018-07-08T10:34:16.482Z,61.58
2018-07-08T10:36:45.170Z,61.82
2018-07-08T10:39:14.127Z,60.82
2018-07-08T10:41:42.581Z,59.72
2018-07-08T10:44:11.329Z,60.88
2018-07-08T10:46:39.813Z,61.48
2018-07-08T10:49:08.442Z,60.74
2018-07-08T10:51:36.983Z,61.59
2018-07-08T10:54:05.660Z,59.99
2018-07-08T10:56:34.142Z,61.95
2018-07-08T10:59:02.544Z,60.80
2018-07-08T11:01:31.103Z,61.42
2018-07-08T11:03:59.790Z,62.69
2018-07-08T11:06:28.266Z,61.17
2018-07-08T11:08:56.633Z,62.21
2018-07-08T11:11:25.126Z,61.15
2018-07-08T11:13:53.613Z,60.57
2018-07-08T11:16:21.975Z,59.17
2018-07-08T11:18:50.465Z,60.33
2018-07-08T11:21:18.837Z,59.35
2018-07-08T11:23:47.218Z,59.07
2018-07-08T11:26:15.506Z,60.46
2018-07-08T11:28:43.553Z,60.20
2018-07-08T11:31:11.944Z,58.78
2018-07-08T11:33:40.205Z,60.33
2018-07-08T11:36:08.182Z,60.24
2018-07-08T11:38:36.662Z,57.37
2018-07-08T11:41:05.043Z,57.57
2018-07-08T11:43:33.291Z,59.77
2018-07-08T11:46:01.999Z,60.26
2018-07-08T11:48:30.370Z,59.67
2018-07-08T11:50:58.554Z,59.68
2018-07-08T11:53:26.931Z,57.67
2018-07-08T11:55:55.195Z,59.39
2018-07-08T11:58:23.679Z,57.61
2018-07-08T12:00:51.962Z,58.06
2018-07-08T12:03:20.242Z,59.41
2018-07-08T12:05:48.518Z,58.57
2018-07-08T12:08:16.889Z,58.75
2018-07-08T12:10:45.270Z,56.73
2018-07-08T12:13:13.546Z,60.24
2018-07-08T12:15:41.717Z,59.01
2018-07-08T12:18:09.968Z,56.10
2018-07-08T12:20:38.932Z,57.08
2018-07-08T12:23:07.257Z,57.15
2018-07-08T12:25:35.534Z,54.83
2018-07-08T12:28:04.014Z,56.58
2018-07-08T12:30:32.543Z,58.72
2018-07-08T12:33:00.878Z,59.68
2018-07-08T12:35:29.249Z,60.27
2018-07-08T12:37:57.525Z,59.75
2018-07-08T12:40:25.694Z,59.16
2018-07-08T12:42:54.077Z,59.82
2018-07-08T12:45:21.989Z,59.58
2018-07-08T12:47:50.526Z,60.60
2018-07-08T12:50:18.801Z,60.19
2018-07-08T12:52:46.735Z,59.41
2018-07-08T12:55:15.040Z,60.85
2018-07-08T12:57:43.422Z,60.81
2018-07-08T13:00:11.793Z,60.01
2018-07-08T13:02:39.974Z,59.01
2018-07-08T13:05:08.446Z,60.01
2018-07-08T13:07:36.742Z,58.40
2018-07-08T13:10:05.324Z,59.88
2018-07-08T13:12:34.546Z,60.10
2018-07-08T13:15:03.092Z,57.56
2018-07-08T13:17:31.570Z,58.39
2018-07-08T13:19:59.760Z,58.50
2018-07-08T13:22:28.108Z,59.79
2018-07-08T13:24:56.481Z,57.58
2018-07-08T13:27:24.773Z,58.01
2018-07-08T13:29:52.674Z,59.70
2018-07-08T13:32:21.292Z,56.52
2018-07-08T13:34:49.486Z,59.19
2018-07-08T13:37:17.773Z,56.58
2018-07-08T13:39:46.049Z,58.34
2018-07-08T13:42:14.335Z,57.56
2018-07-08T13:44:42.594Z,57.14
2018-07-08T13:47:10.873Z,57.99
2018-07-08T13:49:39.077Z,58.03
2018-07-08T13:52:07.313Z,56.45
2018-07-08T13:54:35.693Z,57.52
2018-07-08T13:57:04.075Z,58.75
2018-07-08T13:59:32.358Z,60.31
2018-07-08T14:02:00.729Z,57.81
2018-07-08T14:04:29.109Z,58.97
2018-07-08T14:06:57.491Z,59.26
2018-07-08T14:09:25.766Z,59.35
2018-07-08T14:11:54.133Z,61.13
2018-07-08T14:14:22.622Z,60.20
2018-07-08T14:16:50.967Z,61.09
2018-07-08T14:19:19.373Z,58.63
2018-07-08T14:21:47.560Z,58.98
2018-07-08T14:24:16.032Z,61.65
2018-07-08T14:26:44.513Z,68.15
2018-07-08T14:29:12.882Z,71.80
2018-07-08T14:31:41.262Z,80.66
2018-07-08T14:34:09.911Z,93.61
2018-07-08T14:36:38.215Z,98.24
2018-07-08T14:39:07.310Z,100.00
2018-07-08T14:41:35.599Z,100.00
2018-07-08T14:44:03.901Z,100.00
2018-07-08T14:46:31.936Z,100.00
2018-07-08T14:49:01.341Z,100.00
2018-07-08T14:51:29.712Z,100.00
2018-07-08T14:53:57.865Z,100.00
2018-07-08T14:56:26.174Z,100.00
2018-07-08T14:58:54.558Z,100.00
2018-07-08T15:01:23.281Z,100.00
2018-07-08T15:03:51.919Z,100.00
2018-07-08T15:06:20.193Z,100.00
2018-07-08T15:08:48.468Z,100.00
2018-07-08T15:11:16.659Z,100.00
2018-07-08T15:13:45.125Z,100.00
2018-07-08T15:16:13.402Z,100.00
2018-07-08T15:18:41.878Z,100.00
2018-07-08T15:21:10.411Z,100.00
2018-07-08T15:23:38.841Z,100.00
2018-07-08T15:26:07.220Z,100.00
2018-07-08T15:28:35.560Z,100.00
2018-07-08T15:31:03.979Z,100.00
2018-07-08T15:33:32.349Z,100.00
2018-07-08T15:36:00.730Z,100.00
2018-07-08T15:38:29.106Z,100.00
2018-07-08T15:40:57.579Z,100.00
2018-07-08T15:43:25.896Z,100.00
2018-07-08T15:45:54.337Z,100.00
2018-07-08T15:48:22.914Z,100.00
2018-07-08T15:50:51.194Z,100.00
2018-07-08T15:53:19.473Z,100.00
2018-07-08T15:55:47.848Z,100.00
2018-07-08T15:58:16.216Z,100.00
2018-07-08T16:00:44.719Z,100.00
2018-07-08T16:03:13.187Z,100.00
2018-07-08T16:05:41.564Z,100.00
2018-07-08T16:08:09.945Z,100.00
2018-07-08T16:10:38.317Z,100.00
2018-07-08T16:13:06.797Z,100.00
2018-07-08T16:15:35.191Z,100.00
2018-07-08T16:18:03.567Z,100.00
2018-07-08T16:20:32.255Z,100.00
2018-07-08T16:23:00.731Z,100.00
2018-07-08T16:25:28.799Z,100.00
2018-07-08T16:27:57.275Z,100.00
2018-07-08T16:30:25.447Z,100.00
2018-07-08T16:32:53.422Z,100.00
2018-07-08T16:35:22.098Z,100.00
2018-07-08T16:37:50.482Z,100.00
2018-07-08T16:40:18.858Z,100.00
2018-07-08T16:42:47.126Z,100.00
2018-07-08T16:45:15.515Z,100.00
2018-07-08T16:47:43.994Z,100.00
2018-07-08T16:50:12.411Z,100.00
2018-07-08T16:52:40.842Z,100.00
2018-07-08T16:55:09.113Z,100.00
2018-07-08T16:57:37.506Z,100.00
2018-07-08T17:00:06.541Z,100.00
2018-07-08T17:02:35.078Z,100.00
2018-07-08T17:05:03.551Z,100.00
2018-07-08T17:07:31.941Z,100.00
2018-07-08T17:10:00.412Z,100.00
2018-07-08T17:12:28.706Z,100.00
2018-07-08T17:14:57.072Z,100.00
2018-07-08T17:17:25.289Z,100.00
2018-07-08T17:19:53.956Z,100.00
2018-07-08T17:22:22.041Z,100.00
2018-07-08T17:24:49.921Z,100.00
2018-07-08T17:27:17.829Z,100.00
2018-07-08T17:29:45.792Z,100.00
2018-07-08T17:32:13.749Z,100.00
2018-07-08T17:34:42.466Z,100.00
2018-07-08T17:37:10.473Z,100.00
2018-07-08T17:39:38.392Z,100.00
2018-07-08T17:42:06.318Z,100.00
2018-07-08T17:44:34.378Z,100.00
2018-07-08T17:47:02.303Z,100.00
2018-07-08T17:49:30.496Z,100.00
2018-07-08T17:51:58.438Z,100.00
2018-07-08T17:54:26.436Z,100.00
2018-07-08T17:56:54.428Z,100.00
2018-07-08T17:59:22.408Z,100.00
2018-07-08T18:01:50.364Z,100.00
2018-07-08T18:04:18.282Z,100.00
2018-07-08T18:06:46.189Z,100.00
2018-07-08T18:09:14.087Z,100.00
2018-07-08T18:11:42.154Z,100.00
2018-07-08T18:14:10.111Z,100.00
2018-07-08T18:16:38.027Z,100.00
2018-07-08T18:19:06.074Z,100.00
2018-07-08T18:21:34.056Z,100.00
2018-07-08T18:24:02.526Z,100.00
2018-07-08T18:26:31.018Z,100.00
2018-07-08T18:28:59.488Z,100.00
2018-07-08T18:31:27.996Z,100.00
2018-07-08T18:33:56.338Z,100.00
2018-07-08T18:36:24.720Z,100.00
2018-07-08T18:38:52.896Z,100.00
2018-07-08T18:41:21.381Z,100.00
2018-07-08T18:43:49.766Z,100.00
2018-07-08T18:46:18.492Z,100.00
2018-07-08T18:48:46.834Z,100.00
2018-07-08T18:51:15.600Z,100.00
2018-07-08T18:53:43.985Z,100.00
2018-07-08T18:56:12.363Z,100.00
2018-07-08T18:58:40.596Z,100.00
2018-07-08T19:01:09.122Z,100.00
2018-07-08T19:03:37.389Z,100.00
2018-07-08T19:06:05.570Z,100.00
2018-07-08T19:08:33.846Z,100.00
2018-07-08T19:11:02.328Z,100.00
2018-07-08T19:13:30.498Z,100.00
2018-07-08T19:15:58.764Z,100.00
2018-07-08T19:18:27.253Z,100.00
2018-07-08T19:20:55.524Z,100.00
2018-07-08T19:23:23.904Z,100.00
2018-07-08T19:25:52.382Z,100.00
2018-07-08T19:28:20.676Z,100.00
2018-07-08T19:30:49.125Z,100.00
2018-07-08T19:33:18.098Z,100.00
2018-07-08T19:35:46.022Z,100.00
2018-07-08T19:38:14.468Z,100.00
2018-07-08T19:40:42.714Z,100.00
2018-07-08T19:43:11.407Z,100.00
2018-07-08T19:45:39.813Z,100.00
2018-07-08T19:48:08.189Z,100.00
2018-07-08T19:50:36.723Z,100.00
2018-07-08T19:53:05.522Z,100.00
2018-07-08T19:55:34.037Z,100.00
2018-07-08T19:58:02.433Z,100.00
2018-07-08T20:00:30.906Z,100.00
2018-07-08T20:02:59.278Z,100.00
2018-07-08T20:05:27.875Z,100.00
2018-07-08T20:07:56.460Z,100.00
2018-07-08T20:10:25.034Z,100.00
2018-07-08T20:12:53.414Z,100.00
2018-07-08T20:15:21.786Z,100.00
2018-07-08T20:17:50.264Z,100.00
2018-07-08T20:20:18.746Z,100.00
2018-07-08T20:22:47.138Z,100.00
2018-07-08T20:25:15.715Z,100.00
2018-07-08T20:27:44.457Z,100.00
2018-07-08T20:30:12.657Z,100.00
2018-07-08T20:32:41.150Z,100.00
2018-07-08T20:35:09.530Z,100.00
2018-07-08T20:37:37.597Z,100.00
2018-07-08T20:40:05.865Z,100.00
2018-07-08T20:42:34.241Z,100.00
2018-07-08T20:45:02.730Z,100.00
2018-07-08T20:47:31.013Z,100.00
2018-07-08T20:49:59.490Z,100.00
2018-07-08T20:52:28.096Z,100.00
2018-07-08T20:54:56.490Z,100.00
2018-07-08T20:57:24.918Z,100.00
2018-07-08T20:59:53.824Z,100.00
2018-07-08T21:02:22.193Z,100.00
2018-07-08T21:04:50.778Z,100.00
2018-07-08T21:07:19.960Z,100.00
2018-07-08T21:09:48.346Z,100.00
2018-07-08T21:12:16.722Z,100.00
2018-07-08T21:14:45.242Z,100.00
2018-07-08T21:17:13.586Z,100.00
2018-07-08T21:19:42.178Z,100.00
2018-07-08T21:22:10.749Z,100.00
2018-07-08T21:24:39.156Z,100.00
2018-07-08T21:27:07.715Z,100.00
2018-07-08T21:29:36.181Z,100.00
2018-07-08T21:32:04.573Z,100.00
2018-07-08T21:34:33.349Z,100.00
2018-07-08T21:37:01.754Z,100.00
2018-07-08T21:39:30.014Z,100.00
2018-07-08T21:41:58.593Z,100.00
2018-07-08T21:44:27.486Z,100.00
2018-07-08T21:46:55.815Z,100.00
2018-07-08T21:49:24.137Z,100.00
2018-07-08T21:51:52.504Z,100.00
2018-07-08T21:54:20.993Z,100.00
2018-07-08T21:56:49.368Z,100.00
2018-07-08T21:59:17.546Z,100.00
2018-07-08T22:01:59.602Z,100.00
2018-07-08T22:04:27.957Z,100.00
2018-07-08T22:07:01.766Z,100.00
2018-07-08T22:09:30.311Z,100.00
2018-07-08T22:11:58.778Z,100.00
2018-07-08T22:14:27.609Z,100.00
2018-07-08T22:16:56.060Z,100.00
2018-07-08T22:19:24.629Z,100.00
2018-07-08T22:21:53.111Z,100.00
2018-07-08T22:24:21.589Z,100.00
2018-07-08T22:26:49.978Z,100.00
2018-07-08T22:29:18.355Z,100.00
2018-07-08T22:31:46.527Z,100.00
2018-07-08T22:34:14.803Z,100.00
2018-07-08T22:36:43.387Z,100.00
2018-07-08T22:39:11.351Z,100.00
2018-07-08T22:41:39.731Z,100.00
2018-07-08T22:44:08.214Z,100.00
2018-07-08T22:46:36.590Z,100.00
2018-07-08T22:49:05.074Z,100.00
2018-07-08T22:51:33.542Z,100.00
2018-07-08T22:54:02.031Z,100.00
2018-07-08T22:56:30.296Z,100.00
2018-07-08T22:58:58.469Z,100.00
2018-07-08T23:01:37.619Z,100.00
2018-07-08T23:04:06.233Z,100.00
2018-07-08T23:06:34.652Z,100.00
2018-07-08T23:09:04.073Z,100.00
2018-07-08T23:11:32.540Z,100.00
2018-07-08T23:14:01.134Z,100.00
2018-07-08T23:16:29.509Z,100.00
2018-07-08T23:18:57.901Z,100.00
2018-07-08T23:21:26.167Z,100.00
2018-07-08T23:23:54.648Z,100.00
2018-07-08T23:26:22.819Z,100.00
2018-07-08T23:28:51.202Z,100.00
2018-07-08T23:31:19.474Z,100.00
2018-07-08T23:33:47.851Z,100.00
2018-07-08T23:36:16.229Z,100.00
2018-07-08T23:38:44.705Z,100.00
2018-07-08T23:41:12.877Z,100.00
2018-07-08T23:43:41.062Z,100.00
2018-07-08T23:46:09.421Z,100.00
2018-07-08T23:48:37.438Z,100.00
2018-07-08T23:51:05.876Z,100.00
2018-07-08T23:53:34.258Z,100.00
2018-07-08T23:56:02.746Z,100.00
2018-07-08T23:58:31.110Z,100.00
